Time;durP1;ratioP1;P1;durP2;ratioP2;P2;SDS_P1;SDS_P2;PMS_P1;PMS_P2;Temp;Humidity;BMP_temperature;BMP_pressure;BME280_temperature;BME280_humidity;BME280_pressure;Samples;Min_cycle;Max_cycle;Signal;HPM_P1;HPM_P2
2022/12/07 00:01:43;;;;;;;6.33;4.83;;;7.50;88.10;;;;;;4953518;28;20197;-74
2022/12/07 00:04:12;;;;;;;7.43;4.97;;;7.60;88.30;;;;;;4949656;28;20202;-74
2022/12/07 00:06:44;;;;;;;4.97;4.23;;;7.60;88.20;;;;;;4948933;28;20206;-73
2022/12/07 00:09:15;;;;;;;7.60;5.70;;;7.60;88.30;;;;;;4948947;28;20194;-74
2022/12/07 00:11:41;;;;;;;11.70;6.50;;;7.50;88.10;;;;;;4950331;28;20217;-75
2022/12/07 00:14:10;;;;;;;5.93;4.43;;;7.40;87.90;;;;;;4952377;28;20214;-73
2022/12/07 00:16:36;;;;;;;6.90;5.23;;;7.40;88.00;;;;;;4955977;28;20265;-74
2022/12/07 00:19:03;;;;;;;12.03;6.50;;;7.40;88.00;;;;;;4938374;28;21583;-75
2022/12/07 00:21:34;;;;;;;10.17;4.67;;;7.40;88.00;;;;;;4952920;28;20201;-74
2022/12/07 00:24:00;;;;;;;13.80;5.47;;;7.40;88.30;;;;;;4956294;28;20876;-74
2022/12/07 00:26:28;;;;;;;8.70;5.43;;;7.40;88.20;;;;;;4952654;28;20214;-75
2022/12/07 00:29:00;;;;;;;8.67;4.90;;;7.40;88.00;;;;;;4951906;28;20210;-74
2022/12/07 00:31:29;;;;;;;8.23;5.23;;;7.40;88.00;;;;;;4958801;28;20193;-73
2022/12/07 00:33:55;;;;;;;11.70;4.20;;;7.40;88.20;;;;;;4952732;28;20226;-74
2022/12/07 00:36:23;;;;;;;5.97;4.70;;;7.40;88.20;;;;;;4958650;28;20185;-75
2022/12/07 00:38:49;;;;;;;5.27;4.43;;;7.40;88.10;;;;;;4955600;28;20182;-75
2022/12/07 00:41:22;;;;;;;7.43;4.70;;;7.40;88.10;;;;;;4953948;28;20191;-74
2022/12/07 00:43:49;;;;;;;9.00;4.43;;;7.40;88.10;;;;;;4951044;28;20226;-74
2022/12/07 00:46:16;;;;;;;5.87;4.07;;;7.40;88.30;;;;;;4949096;28;20309;-75
2022/12/07 00:48:42;;;;;;;5.83;4.00;;;7.50;88.20;;;;;;4948990;28;20193;-74
2022/12/07 00:51:10;;;;;;;7.17;3.87;;;7.50;88.30;;;;;;4956821;28;20205;-74
2022/12/07 00:53:37;;;;;;;6.63;4.63;;;7.50;88.40;;;;;;4953763;28;21188;-73
2022/12/07 00:56:07;;;;;;;10.93;4.00;;;7.50;88.30;;;;;;4954665;28;20275;-74
2022/12/07 00:58:33;;;;;;;8.63;4.37;;;7.50;88.30;;;;;;4952906;28;20186;-74
2022/12/07 01:01:03;;;;;;;8.57;5.53;;;7.50;88.40;;;;;;4956092;28;20183;-74
2022/12/07 01:03:29;;;;;;;7.27;4.67;;;7.50;88.30;;;;;;4956032;28;20250;-74
2022/12/07 01:05:56;;;;;;;8.17;5.20;;;7.50;88.30;;;;;;4953641;28;20207;-75
2022/12/07 01:08:24;;;;;;;6.90;3.63;;;7.50;88.40;;;;;;4952675;28;20698;-75
2022/12/07 01:10:57;;;;;;;11.63;4.67;;;7.50;88.70;;;;;;4956670;28;20214;-74
2022/12/07 01:13:22;;;;;;;7.70;4.90;;;7.50;88.50;;;;;;4955069;28;20238;-75
2022/12/07 01:15:48;;;;;;;10.03;4.47;;;7.50;88.50;;;;;;4955066;28;20550;-74
2022/12/07 01:18:14;;;;;;;8.87;4.57;;;7.50;88.30;;;;;;4956862;28;20183;-74
2022/12/07 01:20:40;;;;;;;9.77;5.60;;;7.50;88.40;;;;;;4951826;28;20182;-74
2022/12/07 01:23:06;;;;;;;13.70;6.23;;;7.50;88.60;;;;;;4955332;28;20241;-75
2022/12/07 01:25:34;;;;;;;9.73;6.20;;;7.50;88.30;;;;;;4953190;28;20200;-74
2022/12/07 01:28:00;;;;;;;7.00;5.07;;;7.40;88.40;;;;;;4956269;28;20246;-73
2022/12/07 01:30:25;;;;;;;9.77;5.73;;;7.40;88.50;;;;;;4952938;28;20198;-74
2022/12/07 01:32:51;;;;;;;9.53;5.50;;;7.40;88.40;;;;;;4950250;28;20182;-74
2022/12/07 01:35:17;;;;;;;8.53;5.30;;;7.40;88.40;;;;;;4956003;28;20241;-75
2022/12/07 01:37:42;;;;;;;8.13;5.43;;;7.40;88.40;;;;;;4954698;28;20189;-74
2022/12/07 01:40:09;;;;;;;11.67;6.13;;;7.40;88.30;;;;;;4955157;28;20648;-74
2022/12/07 01:42:35;;;;;;;9.33;5.80;;;7.40;88.30;;;;;;4949801;28;20186;-75
2022/12/07 01:45:37;;;;;;;8.07;5.57;;;7.40;88.40;;;;;;4954575;28;20249;-75
2022/12/07 01:48:04;;;;;;;6.37;4.90;;;7.40;88.50;;;;;;4952638;28;20839;-75
2022/12/07 01:50:31;;;;;;;8.07;5.10;;;7.40;88.40;;;;;;4953337;28;20182;-74
2022/12/07 01:53:01;;;;;;;9.73;4.90;;;7.40;88.60;;;;;;4951571;28;20187;-75
2022/12/07 01:55:27;;;;;;;8.57;5.20;;;7.40;88.40;;;;;;4952204;28;20186;-74
2022/12/07 01:57:55;;;;;;;7.17;4.27;;;7.40;88.50;;;;;;4951727;28;20198;-73
2022/12/07 02:00:21;;;;;;;8.87;5.17;;;7.40;88.60;;;;;;4956177;28;20195;-74
2022/12/07 02:03:12;;;;;;;8.07;5.27;;;7.50;88.80;;;;;;4954944;28;20186;-73
2022/12/07 02:05:41;;;;;;;8.60;5.23;;;7.40;88.60;;;;;;4953342;28;20226;-75
2022/12/07 02:08:08;;;;;;;10.43;4.97;;;7.40;88.50;;;;;;4951474;28;20194;-75
2022/12/07 02:10:34;;;;;;;8.90;5.83;;;7.30;88.60;;;;;;4955663;28;20210;-74
2022/12/07 02:13:13;;;;;;;10.17;5.20;;;7.30;88.60;;;;;;4950103;28;20211;-74
2022/12/07 02:16:01;;;;;;;9.73;4.97;;;7.30;88.70;;;;;;4950600;28;20190;-74
2022/12/07 02:19:04;;;;;;;9.17;5.87;;;7.30;88.70;;;;;;4951932;28;20183;-74
2022/12/07 02:21:45;;;;;;;8.90;6.20;;;7.30;88.90;;;;;;4958042;28;20199;-75
2022/12/07 02:25:02;;;;;;;14.20;7.33;;;7.30;89.00;;;;;;4951798;28;20198;-75
2022/12/07 02:27:40;;;;;;;11.47;6.27;;;7.30;89.10;;;;;;4875033;29;20206;-74
2022/12/07 02:30:10;;;;;;;9.33;5.90;;;7.30;89.00;;;;;;4871523;29;20672;-74
2022/12/07 02:33:00;;;;;;;11.90;6.67;;;7.30;89.30;;;;;;4871547;29;20261;-75
2022/12/07 02:35:43;;;;;;;10.93;5.87;;;7.30;89.10;;;;;;4868444;29;20758;-74
2022/12/07 02:38:15;;;;;;;15.03;7.30;;;7.30;89.50;;;;;;4867994;29;20212;-76
2022/12/07 02:40:50;;;;;;;13.70;7.40;;;7.30;89.30;;;;;;4877718;29;20220;-75
2022/12/07 02:43:40;;;;;;;11.57;6.43;;;7.20;89.20;;;;;;4870306;29;20205;-75
2022/12/07 02:46:10;;;;;;;9.97;6.33;;;7.20;89.20;;;;;;4873059;29;21115;-74
2022/12/07 02:48:38;;;;;;;16.13;7.50;;;7.20;89.40;;;;;;4871315;29;21173;-74
2022/12/07 02:51:04;;;;;;;13.97;7.43;;;7.10;89.50;;;;;;4872203;29;20229;-76
2022/12/07 02:53:36;;;;;;;10.50;6.47;;;7.10;89.30;;;;;;4874150;29;20232;-73
2022/12/07 02:56:10;;;;;;;12.27;6.73;;;7.10;89.70;;;;;;4867474;29;21617;-75
2022/12/07 02:59:09;;;;;;;14.13;7.63;;;7.10;89.80;;;;;;4872919;29;20205;-74
2022/12/07 03:01:34;;;;;;;18.30;8.10;;;7.10;89.80;;;;;;4869385;29;20199;-74
2022/12/07 03:04:31;;;;;;;18.33;8.07;;;7.10;90.00;;;;;;4941364;28;20211;-74
2022/12/07 03:07:05;;;;;;;13.97;8.23;;;7.00;89.70;;;;;;4952441;28;20195;-74
2022/12/07 03:09:49;;;;;;;16.63;8.07;;;7.00;89.70;;;;;;4950063;28;20194;-74
2022/12/07 03:12:24;;;;;;;15.40;7.20;;;6.90;90.20;;;;;;4956494;28;20235;-75
2022/12/07 03:15:04;;;;;;;12.40;7.23;;;6.90;90.40;;;;;;4948654;28;20218;-71
2022/12/07 03:17:34;;;;;;;16.17;7.93;;;6.90;90.30;;;;;;4954706;28;20206;-74
2022/12/07 03:20:04;;;;;;;15.63;7.33;;;6.80;90.10;;;;;;4950455;28;20249;-74
2022/12/07 03:22:34;;;;;;;16.57;6.63;;;6.70;89.90;;;;;;4953780;28;20242;-74
2022/12/07 03:25:05;;;;;;;13.57;7.97;;;6.70;89.90;;;;;;4955496;28;20211;-74
2022/12/07 03:27:55;;;;;;;11.90;6.50;;;6.70;89.80;;;;;;4953309;28;20186;-74
2022/12/07 03:30:27;;;;;;;9.50;6.63;;;6.70;89.80;;;;;;4959483;28;20186;-74
2022/12/07 03:33:09;;;;;;;14.77;6.63;;;6.70;90.20;;;;;;4951074;28;20810;-75
2022/12/07 03:35:40;;;;;;;11.83;6.30;;;6.70;90.40;;;;;;4955749;28;20222;-74
2022/12/07 03:38:21;;;;;;;13.20;7.03;;;6.70;90.50;;;;;;4950350;28;20195;-74
2022/12/07 03:41:02;;;;;;;20.40;7.13;;;6.70;90.30;;;;;;4939440;28;20183;-75
2022/12/07 03:43:31;;;;;;;11.97;6.20;;;6.70;90.20;;;;;;4953452;28;20187;-74
2022/12/07 03:46:16;;;;;;;12.07;6.23;;;6.70;90.40;;;;;;4952611;28;20573;-74
2022/12/07 03:49:06;;;;;;;11.20;7.17;;;6.70;90.30;;;;;;4953202;28;20257;-74
2022/12/07 03:52:01;;;;;;;14.57;8.20;;;6.70;90.40;;;;;;4951587;28;20187;-75
2022/12/07 03:54:41;;;;;;;15.03;6.30;;;6.70;90.50;;;;;;4889315;29;20228;-75
2022/12/07 03:57:08;;;;;;;16.87;6.80;;;6.70;90.50;;;;;;4889031;29;20339;-74
2022/12/07 03:59:34;;;;;;;13.63;7.50;;;6.70;90.50;;;;;;4885518;29;20201;-75
2022/12/07 04:02:05;;;;;;;10.77;7.30;;;6.70;90.60;;;;;;4885224;29;20212;-75
2022/12/07 04:04:32;;;;;;;12.90;6.77;;;6.70;90.60;;;;;;4888583;29;20232;-73
2022/12/07 04:06:58;;;;;;;12.07;6.83;;;6.80;90.70;;;;;;4890723;29;20746;-73
2022/12/07 04:09:25;;;;;;;15.70;7.63;;;6.80;90.80;;;;;;4889147;29;20193;-75
2022/12/07 04:11:51;;;;;;;9.83;6.67;;;6.80;90.80;;;;;;4886987;29;20220;-73
2022/12/07 04:14:19;;;;;;;12.80;5.80;;;6.80;90.70;;;;;;4888208;29;20212;-73
2022/12/07 04:16:58;;;;;;;13.17;6.97;;;6.80;90.70;;;;;;4888946;29;20185;-74
2022/12/07 04:19:27;;;;;;;11.03;6.70;;;6.80;90.50;;;;;;4883439;29;20197;-74
2022/12/07 04:21:53;;;;;;;15.83;7.80;;;6.70;90.50;;;;;;4887753;29;20275;-75
2022/12/07 04:24:19;;;;;;;12.67;5.77;;;6.80;90.60;;;;;;4888249;29;20201;-75
2022/12/07 04:26:46;;;;;;;9.67;6.30;;;6.80;90.50;;;;;;4887705;29;20198;-74
2022/12/07 04:29:12;;;;;;;9.53;6.03;;;6.70;90.60;;;;;;4887693;29;20200;-73
2022/12/07 04:31:38;;;;;;;14.00;6.37;;;6.70;90.40;;;;;;4940555;28;20229;-75
2022/12/07 04:34:05;;;;;;;10.57;6.37;;;6.70;90.40;;;;;;4955320;28;20739;-75
2022/12/07 04:36:32;;;;;;;11.53;6.87;;;6.70;90.40;;;;;;4952916;28;20198;-75
2022/12/07 04:38:58;;;;;;;8.33;6.37;;;6.70;90.40;;;;;;4955425;28;20221;-75
2022/12/07 04:41:28;;;;;;;10.47;7.17;;;6.70;90.40;;;;;;4951684;28;20203;-74
2022/12/07 04:44:02;;;;;;;10.27;5.03;;;6.70;90.30;;;;;;4949520;28;20652;-74
2022/12/07 04:46:30;;;;;;;11.80;5.90;;;6.70;90.30;;;;;;4950678;28;20194;-73
2022/12/07 04:48:56;;;;;;;9.40;5.93;;;6.70;90.30;;;;;;4953478;28;20269;-75
2022/12/07 04:51:25;;;;;;;10.63;5.97;;;6.70;90.30;;;;;;4939929;28;20201;-74
2022/12/07 04:53:51;;;;;;;9.87;5.73;;;6.60;90.30;;;;;;4956492;28;20280;-74
2022/12/07 04:56:18;;;;;;;10.50;4.47;;;6.60;90.30;;;;;;4948710;28;20242;-74
2022/12/07 04:58:45;;;;;;;6.03;4.07;;;6.60;90.50;;;;;;4953210;28;20221;-77
2022/12/07 05:01:12;;;;;;;10.53;5.13;;;6.60;90.50;;;;;;4945374;28;20179;-73
2022/12/07 05:03:38;;;;;;;8.03;4.33;;;6.60;90.20;;;;;;4951808;28;20194;-75
2022/12/07 05:06:05;;;;;;;7.87;4.40;;;6.50;90.30;;;;;;4955029;28;20198;-75
2022/12/07 05:08:31;;;;;;;8.97;5.33;;;6.50;90.30;;;;;;4955848;28;20198;-75
2022/12/07 05:10:57;;;;;;;10.80;5.60;;;6.50;90.40;;;;;;4952256;28;20184;-75
2022/12/07 05:13:23;;;;;;;7.60;5.00;;;6.50;90.50;;;;;;4952571;28;20214;-75
2022/12/07 05:15:49;;;;;;;9.23;5.27;;;6.50;90.50;;;;;;4955762;28;20276;-75
2022/12/07 05:18:15;;;;;;;18.47;6.70;;;6.50;90.50;;;;;;4955490;28;20689;-75
2022/12/07 05:20:42;;;;;;;13.90;7.03;;;6.40;90.90;;;;;;4935528;28;20226;-78
2022/12/07 05:23:08;;;;;;;15.03;6.67;;;6.40;90.90;;;;;;4954114;28;20245;-73
2022/12/07 05:25:34;;;;;;;11.13;6.37;;;6.50;91.40;;;;;;4952787;28;20736;-73
2022/12/07 05:28:00;;;;;;;18.13;6.60;;;6.40;91.20;;;;;;4954144;28;20227;-73
2022/12/07 05:30:26;;;;;;;13.63;6.80;;;6.50;91.70;;;;;;4950340;28;20277;-73
2022/12/07 05:32:52;;;;;;;11.40;6.23;;;;;;;;;;4954527;28;20186;-75
2022/12/07 05:35:18;;;;;;;8.43;5.83;;;6.40;92.00;;;;;;4955658;28;20221;-74
2022/12/07 05:37:45;;;;;;;10.50;6.40;;;6.40;91.80;;;;;;4957921;28;20711;-75
2022/12/07 05:40:14;;;;;;;10.73;5.57;;;6.40;92.00;;;;;;4962271;28;20885;-74
2022/12/07 05:42:40;;;;;;;10.40;7.27;;;6.40;91.90;;;;;;4938092;28;20198;-75
2022/12/07 05:45:07;;;;;;;12.77;6.80;;;6.30;91.70;;;;;;4952904;28;20270;-76
2022/12/07 05:47:33;;;;;;;11.73;6.83;;;6.30;91.60;;;;;;4952736;28;20659;-77
2022/12/07 05:49:59;;;;;;;15.63;6.23;;;6.30;91.70;;;;;;4950905;28;20272;-76
2022/12/07 05:52:25;;;;;;;10.30;6.63;;;6.30;91.70;;;;;;4954208;28;20672;-75
2022/12/07 05:54:51;;;;;;;9.20;6.10;;;6.30;91.60;;;;;;4953384;28;20222;-75
2022/12/07 05:57:17;;;;;;;10.73;6.23;;;6.30;91.50;;;;;;4949889;28;20677;-74
2022/12/07 05:59:43;;;;;;;19.57;6.67;;;6.40;91.50;;;;;;4955270;28;20273;-75
2022/12/07 06:02:12;;;;;;;11.00;7.13;;;6.40;91.50;;;;;;4954332;28;20211;-73
2022/12/07 06:04:40;;;;;;;13.50;7.00;;;6.40;91.60;;;;;;4956561;28;20216;-71
2022/12/07 06:07:06;;;;;;;11.63;6.00;;;6.50;91.50;;;;;;4952013;28;20294;-72
2022/12/07 06:09:33;;;;;;;13.63;5.50;;;6.50;91.60;;;;;;4954518;28;20311;-71
2022/12/07 06:14:44;;;;;;;10.20;5.07;;;6.60;91.60;;;;;;4952186;28;20265;-72
2022/12/07 06:17:12;;;;;;;13.23;6.50;;;6.60;91.60;;;;;;4949315;28;20261;-72
2022/12/07 06:19:39;;;;;;;10.30;6.17;;;6.60;91.50;;;;;;4949343;28;20319;-72
2022/12/07 06:22:05;;;;;;;8.03;5.10;;;6.60;91.60;;;;;;4951424;28;20240;-72
2022/12/07 06:24:32;;;;;;;15.23;6.07;;;6.60;91.50;;;;;;4950003;28;20751;-72
2022/12/07 06:26:58;;;;;;;8.57;5.70;;;6.60;91.50;;;;;;4950259;28;20179;-72
2022/12/07 06:29:24;;;;;;;8.47;5.33;;;6.70;91.60;;;;;;4947130;28;20190;-73
2022/12/07 06:31:50;;;;;;;11.33;5.90;;;6.70;91.60;;;;;;4951630;28;20186;-71
2022/12/07 06:34:18;;;;;;;9.07;5.70;;;6.70;91.80;;;;;;4948974;28;20225;-71
2022/12/07 06:36:44;;;;;;;6.23;4.30;;;6.80;91.90;;;;;;4951701;28;20620;-72
2022/12/07 06:39:10;;;;;;;8.20;4.73;;;6.90;91.80;;;;;;4951780;28;20612;-74
2022/12/07 06:41:39;;;;;;;11.57;6.00;;;6.90;91.70;;;;;;4950026;28;20699;-72
2022/12/07 06:44:06;;;;;;;7.53;4.60;;;6.90;91.70;;;;;;4948337;28;20584;-72
2022/12/07 06:46:32;;;;;;;8.73;4.60;;;6.90;91.60;;;;;;4950011;28;20995;-72
2022/12/07 06:48:57;;;;;;;5.33;4.60;;;6.90;91.70;;;;;;4951389;28;20207;-72
2022/12/07 06:51:23;;;;;;;5.33;4.20;;;6.90;91.70;;;;;;4949655;28;20692;-72
2022/12/07 06:53:50;;;;;;;10.83;4.80;;;7.00;91.80;;;;;;4936025;28;20214;-72
2022/12/07 06:56:16;;;;;;;9.97;4.53;;;7.00;91.80;;;;;;4945976;28;20831;-72
2022/12/07 06:58:42;;;;;;;6.73;4.70;;;7.10;91.70;;;;;;4955366;28;20179;-72
2022/12/07 07:01:12;;;;;;;8.37;4.23;;;7.10;91.70;;;;;;4931994;28;20205;-72
2022/12/07 07:03:38;;;;;;;10.40;5.00;;;7.20;91.70;;;;;;4951837;28;20190;-72
2022/12/07 07:06:05;;;;;;;12.37;5.97;;;7.20;91.70;;;;;;4952025;28;20249;-72
2022/12/07 07:08:31;;;;;;;8.50;5.10;;;7.30;91.60;;;;;;4955738;28;20253;-72
2022/12/07 07:10:56;;;;;;;8.93;4.87;;;7.30;91.60;;;;;;4952310;28;20242;-72
2022/12/07 07:13:22;;;;;;;7.10;4.83;;;7.30;91.50;;;;;;4953458;28;20241;-72
2022/12/07 07:15:48;;;;;;;5.57;4.93;;;7.40;91.50;;;;;;4950320;28;20270;-73
2022/12/07 07:18:14;;;;;;;15.03;6.03;;;7.40;91.40;;;;;;4951694;28;20691;-72
2022/12/07 07:20:40;;;;;;;10.17;5.30;;;7.40;91.40;;;;;;4948722;28;20183;-71
2022/12/07 07:23:05;;;;;;;13.70;6.03;;;7.50;91.40;;;;;;4950651;28;20179;-73
2022/12/07 07:25:31;;;;;;;9.70;5.57;;;7.50;91.40;;;;;;4952314;28;20183;-72
2022/12/07 07:27:57;;;;;;;10.67;5.77;;;7.60;91.40;;;;;;4954426;28;20664;-72
2022/12/07 07:30:23;;;;;;;9.37;5.27;;;7.60;91.30;;;;;;4955024;28;20726;-71
2022/12/07 07:32:49;;;;;;;14.10;6.57;;;7.70;91.40;;;;;;4956997;28;20179;-73
2022/12/07 07:35:14;;;;;;;18.60;7.80;;;7.70;91.40;;;;;;4956208;28;20218;-72
2022/12/07 07:37:40;;;;;;;17.37;7.93;;;7.80;91.20;;;;;;4937243;28;20189;-72
2022/12/07 07:40:08;;;;;;;12.83;8.33;;;7.80;91.00;;;;;;4954828;28;20187;-72
2022/12/07 07:42:33;;;;;;;17.03;7.40;;;7.80;91.00;;;;;;4950457;28;20191;-71
2022/12/07 07:44:59;;;;;;;14.37;8.33;;;7.90;90.90;;;;;;4952334;28;20253;-71
2022/12/07 07:47:25;;;;;;;15.90;8.53;;;7.90;91.20;;;;;;4951282;28;20198;-72
2022/12/07 07:49:50;;;;;;;21.20;10.00;;;7.90;90.90;;;;;;4950750;28;20191;-71
2022/12/07 07:52:16;;;;;;;16.37;8.27;;;8.00;91.00;;;;;;4950023;28;20187;-71
2022/12/07 07:54:42;;;;;;;11.73;7.45;;;8.00;91.00;;;;;;4952100;28;20281;-71
2022/12/07 07:57:07;;;;;;;10.77;7.30;;;8.10;91.20;;;;;;4951642;28;20199;-71
2022/12/07 07:59:33;;;;;;;17.53;7.70;;;8.20;91.30;;;;;;4952902;28;20187;-72
2022/12/07 08:01:59;;;;;;;12.50;8.30;;;8.30;91.00;;;;;;4953643;28;20267;-71
2022/12/07 08:04:24;;;;;;;15.93;7.53;;;8.40;91.20;;;;;;4955376;28;20197;-72
2022/12/07 08:06:50;;;;;;;16.50;9.30;;;8.40;91.20;;;;;;4950107;28;20194;-71
2022/12/07 08:09:16;;;;;;;18.23;8.32;;;8.60;90.30;;;;;;4952280;28;20206;-71
2022/12/07 08:11:41;;;;;;;13.15;8.50;;;8.60;89.70;;;;;;4938473;28;20182;-72
2022/12/07 08:14:07;;;;;;;13.47;7.83;;;8.60;90.00;;;;;;4951545;28;20599;-72
2022/12/07 08:16:33;;;;;;;12.95;8.43;;;8.60;90.10;;;;;;4936068;28;20202;-72
2022/12/07 08:18:58;;;;;;;14.40;8.10;;;8.70;89.50;;;;;;4953724;28;20580;-71
2022/12/07 08:21:24;;;;;;;15.73;7.82;;;8.70;89.60;;;;;;4952599;28;20191;-71
2022/12/07 08:23:49;;;;;;;15.38;8.55;;;8.70;89.80;;;;;;4950178;28;20183;-73
2022/12/07 08:26:16;;;;;;;11.65;8.07;;;8.70;89.90;;;;;;4956147;28;20186;-72
2022/12/07 08:28:42;;;;;;;16.55;7.95;;;8.80;89.90;;;;;;4945166;28;20191;-72
2022/12/07 08:31:12;;;;;;;19.83;8.52;;;8.90;89.80;;;;;;4951451;28;20175;-72
2022/12/07 08:33:38;;;;;;;17.80;8.70;;;9.00;89.60;;;;;;4951328;28;20202;-72
2022/12/07 08:36:06;;;;;;;14.55;8.30;;;9.00;89.40;;;;;;4954182;28;20189;-73
2022/12/07 08:38:34;;;;;;;16.60;8.50;;;9.10;89.40;;;;;;4946803;28;20242;-72
2022/12/07 08:41:00;;;;;;;13.65;8.25;;;9.10;89.20;;;;;;4955570;28;20673;-73
2022/12/07 08:43:26;;;;;;;13.90;8.43;;;9.20;89.20;;;;;;4948434;28;20183;-72
2022/12/07 08:46:05;;;;;;;18.67;9.85;;;9.30;88.90;;;;;;4950068;28;20185;-72
2022/12/07 08:48:31;;;;;;;19.42;9.75;;;9.30;88.60;;;;;;4952928;28;20676;-71
2022/12/07 08:50:58;;;;;;;20.40;10.52;;;9.30;87.60;;;;;;4957638;28;20651;-72
2022/12/07 08:53:24;;;;;;;15.68;10.07;;;9.30;87.80;;;;;;4953956;28;20186;-72
2022/12/07 08:55:49;;;;;;;21.02;10.63;;;9.30;88.00;;;;;;4958982;28;20583;-72
2022/12/07 08:58:15;;;;;;;15.38;9.40;;;9.30;88.30;;;;;;4954362;28;20237;-73
2022/12/07 09:00:41;;;;;;;19.63;10.55;;;9.40;88.30;;;;;;4951820;28;20274;-72
2022/12/07 09:03:07;;;;;;;26.40;10.88;;;9.40;87.90;;;;;;4935552;28;20191;-72
2022/12/07 09:05:34;;;;;;;22.25;11.35;;;9.50;86.80;;;;;;4952611;28;21144;-73
2022/12/07 09:08:01;;;;;;;17.40;9.95;;;9.50;86.80;;;;;;4955248;28;20969;-72
2022/12/07 09:10:28;;;;;;;16.35;9.55;;;9.50;87.20;;;;;;4950593;28;20194;-71
2022/12/07 09:12:53;;;;;;;19.30;10.50;;;9.50;87.80;;;;;;4952428;28;20185;-72
2022/12/07 09:15:19;;;;;;;22.17;10.43;;;9.50;87.60;;;;;;4948075;28;20853;-72
2022/12/07 09:17:45;;;;;;;15.88;8.98;;;9.60;87.90;;;;;;4950054;28;20498;-72
2022/12/07 09:20:12;;;;;;;17.75;10.52;;;9.70;87.30;;;;;;4950740;28;20202;-71
2022/12/07 09:22:38;;;;;;;18.75;9.85;;;9.70;86.60;;;;;;4955524;28;20682;-72
2022/12/07 09:25:04;;;;;;;16.13;10.10;;;9.70;87.10;;;;;;4950577;28;20262;-72
2022/12/07 09:27:30;;;;;;;17.30;10.43;;;9.80;86.90;;;;;;4952371;28;20194;-71
2022/12/07 09:29:56;;;;;;;22.83;10.98;;;9.80;86.30;;;;;;4951657;28;20300;-71
2022/12/07 09:32:22;;;;;;;16.08;9.63;;;9.80;86.60;;;;;;4951341;28;20236;-72
2022/12/07 09:34:48;;;;;;;16.42;9.82;;;9.80;86.60;;;;;;4957122;28;20318;-72
2022/12/07 09:37:13;;;;;;;13.68;8.18;;;9.80;86.70;;;;;;4951122;28;20269;-72
2022/12/07 09:39:40;;;;;;;18.80;9.82;;;9.90;86.80;;;;;;4955779;28;20210;-72
2022/12/07 09:42:07;;;;;;;13.52;8.38;;;9.90;86.90;;;;;;4952115;28;20193;-72
2022/12/07 09:44:34;;;;;;;27.58;8.88;;;10.00;87.10;;;;;;4954984;28;20191;-72
2022/12/07 09:47:01;;;;;;;14.23;8.10;;;10.10;87.30;;;;;;4946803;28;20191;-72
2022/12/07 09:49:32;;;;;;;16.75;9.77;;;10.10;86.70;;;;;;4950716;28;20194;-73
2022/12/07 09:52:19;;;;;;;15.23;8.40;;;10.10;86.30;;;;;;4952627;28;20230;-72
2022/12/07 09:54:48;;;;;;;18.90;10.35;;;10.20;86.50;;;;;;4950483;28;20735;-71
2022/12/07 09:57:14;;;;;;;16.27;7.93;;;10.20;86.10;;;;;;4948742;28;20187;-72
2022/12/07 09:59:40;;;;;;;20.70;9.43;;;10.20;86.20;;;;;;4949134;28;20201;-72
2022/12/07 10:02:38;;;;;;;16.48;8.73;;;10.20;85.90;;;;;;4953993;28;20186;-71
2022/12/07 10:05:12;;;;;;;10.43;8.20;;;10.30;86.10;;;;;;4953159;28;20222;-72
2022/12/07 10:07:37;;;;;;;18.45;9.80;;;10.30;86.30;;;;;;4947340;28;20660;-72
2022/12/07 10:10:14;;;;;;;19.98;8.93;;;10.50;86.10;;;;;;4950390;28;20249;-72
2022/12/07 10:12:54;;;;;;;19.20;10.45;;;10.50;85.60;;;;;;4948813;28;20281;-73
2022/12/07 10:15:19;;;;;;;16.23;9.60;;;10.50;85.30;;;;;;4951205;28;20856;-72
2022/12/07 10:17:52;;;;;;;17.15;9.70;;;10.50;85.40;;;;;;4950076;28;20194;-71
2022/12/07 10:20:22;;;;;;;23.48;9.27;;;10.70;85.20;;;;;;4945862;28;20183;-73
2022/12/07 10:22:57;;;;;;;15.98;10.20;;;10.80;85.10;;;;;;4957002;28;20190;-71
2022/12/07 10:25:28;;;;;;;21.33;9.70;;;10.80;85.10;;;;;;4954025;28;20245;-72
2022/12/07 10:28:08;;;;;;;20.27;9.23;;;10.90;84.40;;;;;;4955068;28;20190;-71
2022/12/07 10:31:18;;;;;;;17.85;10.43;;;11.00;84.90;;;;;;4953717;28;20181;-72
2022/12/07 10:33:50;;;;;;;17.38;10.23;;;11.10;83.40;;;;;;4913408;29;20263;-72
2022/12/07 10:36:38;;;;;;;14.90;9.82;;;11.20;83.20;;;;;;4896808;29;20716;-72
2022/12/07 10:39:24;;;;;;;12.88;9.57;;;11.20;82.70;;;;;;4908650;29;20187;-71
2022/12/07 10:42:02;;;;;;;29.65;10.60;;;11.10;82.10;;;;;;4908839;29;20206;-72
2022/12/07 10:44:30;;;;;;;12.93;8.63;;;11.00;82.30;;;;;;4910896;29;21018;-72
2022/12/07 10:47:23;;;;;;;13.50;9.18;;;10.90;82.90;;;;;;4912207;29;20661;-72
2022/12/07 10:50:21;;;;;;;20.15;9.07;;;10.90;83.00;;;;;;4909011;29;20239;-71
2022/12/07 10:53:05;;;;;;;12.75;8.13;;;10.90;83.60;;;;;;4866252;29;20301;-72
2022/12/07 10:56:03;;;;;;;13.93;7.55;;;10.90;83.10;;;;;;4865283;29;20333;-72
2022/12/07 10:58:40;;;;;;;13.00;8.07;;;10.90;82.30;;;;;;4791722;29;20208;-72
2022/12/07 11:01:16;;;;;;;15.07;8.32;;;10.70;82.70;;;;;;4791288;29;20199;-71
2022/12/07 11:04:13;;;;;;;17.98;7.40;;;10.70;83.00;;;;;;4792405;29;20215;-71
2022/12/07 11:07:01;;;;;;;19.10;8.02;;;10.70;83.70;;;;;;4792255;29;20207;-71
2022/12/07 11:09:44;;;;;;;14.00;8.00;;;10.80;84.30;;;;;;4807509;29;20199;-71
2022/12/07 11:12:28;;;;;;;15.55;8.68;;;10.80;83.80;;;;;;4819154;29;20214;-71
2022/12/07 11:15:02;;;;;;;19.35;9.18;;;10.90;84.30;;;;;;4817234;29;20415;-72
2022/12/07 11:17:36;;;;;;;10.23;7.00;;;11.00;84.30;;;;;;4814416;29;20206;-72
2022/12/07 11:20:25;;;;;;;16.88;8.75;;;11.00;84.70;;;;;;4816613;29;21098;-71
2022/12/07 11:23:09;;;;;;;13.70;8.35;;;11.10;83.80;;;;;;4819932;29;20289;-71
2022/12/07 11:25:48;;;;;;;17.83;9.13;;;11.20;84.00;;;;;;4818220;29;20218;-73
2022/12/07 11:28:32;;;;;;;18.02;8.10;;;11.30;84.30;;;;;;4827688;29;20206;-73
2022/12/07 11:31:07;;;;;;;13.68;9.23;;;11.50;84.50;;;;;;4839977;29;20263;-71
2022/12/07 11:33:46;;;;;;;11.00;7.82;;;11.60;83.20;;;;;;4840763;29;20736;-71
2022/12/07 11:36:33;;;;;;;10.43;7.13;;;11.70;83.40;;;;;;4934893;28;20209;-71
2022/12/07 11:39:04;;;;;;;12.48;7.95;;;11.90;83.60;;;;;;4951694;28;20186;-72
2022/12/07 11:41:38;;;;;;;14.18;8.25;;;12.20;84.10;;;;;;4946140;28;20512;-72
2022/12/07 11:44:30;;;;;;;12.88;7.32;;;12.50;82.90;;;;;;4948567;28;20174;-73
2022/12/07 11:47:07;;;;;;;10.30;7.85;;;12.70;82.90;;;;;;4950971;28;20187;-72
2022/12/07 11:49:51;;;;;;;11.48;7.20;;;13.00;82.60;;;;;;4945610;28;20195;-72
2022/12/07 11:52:32;;;;;;;11.02;6.85;;;13.30;81.20;;;;;;4931597;28;20687;-71
2022/12/07 11:55:00;;;;;;;13.52;6.80;;;13.50;80.60;;;;;;4952795;28;20376;-73
2022/12/07 11:57:37;;;;;;;11.02;7.78;;;13.60;80.10;;;;;;4948564;28;20340;-72
2022/12/07 12:00:12;;;;;;;13.95;7.88;;;13.80;80.60;;;;;;4944734;28;20187;-71
2022/12/07 12:03:18;;;;;;;13.85;6.97;;;14.00;80.20;;;;;;4946643;28;20198;-72
2022/12/07 12:05:44;;;;;;;9.93;6.78;;;14.50;81.10;;;;;;4945543;28;20203;-72
2022/12/07 12:08:34;;;;;;;12.55;7.35;;;15.00;78.80;;;;;;4947398;28;20210;-72
2022/12/07 12:11:17;;;;;;;14.82;7.72;;;15.30;76.70;;;;;;4949074;28;20195;-72
2022/12/07 12:14:27;;;;;;;12.68;7.28;;;15.30;74.30;;;;;;4946097;28;20405;-72
2022/12/07 12:17:07;;;;;;;12.80;6.80;;;15.30;73.50;;;;;;4888211;29;20204;-73
2022/12/07 12:19:57;;;;;;;13.25;7.18;;;15.30;74.30;;;;;;4885981;29;20849;-73
2022/12/07 12:22:33;;;;;;;16.60;7.57;;;15.40;76.70;;;;;;4886034;29;20754;-73
2022/12/07 12:24:59;;;;;;;11.85;6.97;;;15.60;75.70;;;;;;4884415;29;20251;-73
2022/12/07 12:27:31;;;;;;;13.23;7.93;;;16.00;75.30;;;;;;4883110;29;20260;-72
2022/12/07 12:30:05;;;;;;;9.35;6.45;;;16.40;75.60;;;;;;4885617;29;20189;-73
2022/12/07 12:32:42;;;;;;;13.73;6.78;;;16.70;74.90;;;;;;4885097;29;20223;-73
2022/12/07 12:35:30;;;;;;;12.18;7.13;;;17.10;71.70;;;;;;4885703;29;20220;-72
2022/12/07 12:38:15;;;;;;;11.70;6.45;;;17.20;70.00;;;;;;4885008;29;20643;-72
2022/12/07 12:40:42;;;;;;;10.38;6.95;;;17.30;70.30;;;;;;4882001;29;20205;-73
2022/12/07 12:43:46;;;;;;;10.52;6.40;;;17.40;70.20;;;;;;4883311;29;20196;-73
2022/12/07 12:46:33;;;;;;;8.55;6.28;;;17.60;71.10;;;;;;4885165;29;20276;-73
2022/12/07 12:49:19;;;;;;;17.05;7.72;;;17.90;70.40;;;;;;4886878;29;20272;-73
2022/12/07 12:51:47;;;;;;;11.10;7.43;;;18.20;69.60;;;;;;4880254;29;20790;-73
2022/12/07 12:54:27;;;;;;;13.27;7.57;;;18.70;69.70;;;;;;4938806;28;20721;-73
2022/12/07 12:57:11;;;;;;;7.80;6.38;;;18.90;69.20;;;;;;4951357;28;20183;-71
2022/12/07 12:59:52;;;;;;;8.68;5.70;;;19.20;69.80;;;;;;4945726;28;20183;-72
2022/12/07 13:02:22;;;;;;;12.75;7.00;;;19.50;67.70;;;;;;4949460;28;20198;-72
2022/12/07 13:05:12;;;;;;;13.82;6.22;;;19.60;65.50;;;;;;4947182;28;20193;-72
2022/12/07 13:08:16;;;;;;;9.80;6.45;;;19.70;63.60;;;;;;4952849;28;20182;-73
2022/12/07 13:10:47;;;;;;;9.23;6.32;;;19.80;64.80;;;;;;4948450;28;20211;-73
2022/12/07 13:13:17;;;;;;;9.50;6.70;;;19.80;65.70;;;;;;4947730;28;20190;-73
2022/12/07 13:15:45;;;;;;;9.98;6.43;;;19.60;62.90;;;;;;4945109;28;20249;-73